EJU61ME LMML-LFMN
Flight info
| Callsign | EJU61ME |
|---|---|
| Flight time | 1h 50m |
| Altitude | 18000 |
| Route | GZO M622 ADEXI/N0434F360 DCT PAL DCT GIANO DCT POKAV DCT ABIDU/N0449F370 DCT OKIDO/N0439F360 DCT RUGOX DCT MADKA DCT AJO DCT BEBEV/N0410F300 DCT OMEDA M622 LONSU |
| Aircraft | A320/M-SDE2E3FGHIJ1RWXYZ/LB1 |
Departure
| Time | 2026-05-07 11:51 |
|---|---|
| Airport | Malta International Airport (LMML) |
Arrival
| Time | 2026-05-07 13:42 |
|---|---|
| Airport | Nice-Côte d'Azur Airport (LFMN) |
| Time | Latitude | Longitude | Altitude | Speed | Heading |
|---|---|---|---|---|---|
| 2026-05-07 11:20 | 35.84911 | 14.49395 | 259 ft | 0 kts | 0° |
| 2026-05-07 11:44 | 35.84899 | 14.49395 | 259 ft | 4 kts | 357° |
| 2026-05-07 11:44 | 35.84873 | 14.49399 | 259 ft | 4 kts | 342° |
| 2026-05-07 11:44 | 35.84850 | 14.49412 | 259 ft | 2 kts | 327° |
| 2026-05-07 11:45 | 35.84848 | 14.49413 | 259 ft | 0 kts | 327° |
| 2026-05-07 11:47 | 35.84859 | 14.49396 | 259 ft | 6 kts | 300° |
| 2026-05-07 11:47 | 35.84869 | 14.49351 | 259 ft | 5 kts | 296° |
| 2026-05-07 11:47 | 35.84888 | 14.49323 | 259 ft | 4 kts | 313° |
| 2026-05-07 11:48 | 35.84903 | 14.49304 | 259 ft | 3 kts | 314° |
| 2026-05-07 11:48 | 35.84927 | 14.49264 | 258 ft | 7 kts | 297° |
| 2026-05-07 11:48 | 35.84937 | 14.49213 | 258 ft | 5 kts | 271° |
| 2026-05-07 11:48 | 35.84923 | 14.49178 | 258 ft | 4 kts | 227° |
| 2026-05-07 11:49 | 35.84900 | 14.49145 | 258 ft | 6 kts | 240° |
| 2026-05-07 11:49 | 35.84900 | 14.49103 | 259 ft | 4 kts | 290° |
| 2026-05-07 11:49 | 35.84925 | 14.49065 | 258 ft | 7 kts | 304° |
| 2026-05-07 11:49 | 35.84929 | 14.49017 | 258 ft | 5 kts | 259° |
| 2026-05-07 11:50 | 35.84912 | 14.48986 | 258 ft | 5 kts | 221° |
| 2026-05-07 11:50 | 35.84864 | 14.48975 | 258 ft | 8 kts | 172° |
| 2026-05-07 11:50 | 35.84800 | 14.48981 | 259 ft | 10 kts | 200° |
| 2026-05-07 11:50 | 35.84747 | 14.48987 | 259 ft | 9 kts | 140° |
| 2026-05-07 11:51 | 35.84622 | 14.49143 | 259 ft | 57 kts | 135° |
| 2026-05-07 11:51 | 35.84193 | 14.49676 | 256 ft | 115 kts | 135° |
| 2026-05-07 11:51 | 35.83516 | 14.50485 | 329 ft | 147 kts | 136° |
| 2026-05-07 11:51 | 35.82788 | 14.51260 | 975 ft | 137 kts | 158° |
| 2026-05-07 11:52 | 35.81895 | 14.51423 | 1394 ft | 131 kts | 199° |
| 2026-05-07 11:52 | 35.81092 | 14.50976 | 1910 ft | 126 kts | 224° |
| 2026-05-07 11:52 | 35.80564 | 14.50145 | 2439 ft | 123 kts | 242° |
| 2026-05-07 11:52 | 35.80131 | 14.49234 | 2906 ft | 123 kts | 241° |
| 2026-05-07 11:53 | 35.79692 | 14.48329 | 3342 ft | 123 kts | 242° |
| 2026-05-07 11:53 | 35.79234 | 14.47384 | 3600 ft | 137 kts | 242° |
| 2026-05-07 11:53 | 35.78713 | 14.46303 | 3785 ft | 158 kts | 242° |
| 2026-05-07 11:53 | 35.78119 | 14.45070 | 3976 ft | 181 kts | 242° |
| 2026-05-07 11:54 | 35.77433 | 14.43646 | 4147 ft | 206 kts | 242° |
| 2026-05-07 11:54 | 35.76655 | 14.42041 | 4427 ft | 230 kts | 241° |
| 2026-05-07 11:54 | 35.75822 | 14.40279 | 4942 ft | 243 kts | 246° |
| 2026-05-07 11:54 | 35.75313 | 14.38292 | 5722 ft | 245 kts | 262° |
| 2026-05-07 11:55 | 35.75285 | 14.36199 | 6536 ft | 247 kts | 276° |
| 2026-05-07 11:55 | 35.75743 | 14.34148 | 7291 ft | 253 kts | 291° |
| 2026-05-07 11:55 | 35.76693 | 14.32286 | 8033 ft | 263 kts | 306° |
| 2026-05-07 11:55 | 35.78094 | 14.30813 | 8761 ft | 276 kts | 323° |
| 2026-05-07 11:56 | 35.79904 | 14.29884 | 9494 ft | 290 kts | 341° |
| 2026-05-07 11:56 | 35.81963 | 14.29709 | 10182 ft | 304 kts | 357° |
| 2026-05-07 11:56 | 35.84076 | 14.29638 | 10710 ft | 308 kts | 342° |
| 2026-05-07 11:56 | 35.86171 | 14.28842 | 10887 ft | 325 kts | 334° |
| 2026-05-07 11:57 | 35.88331 | 14.27859 | 11344 ft | 336 kts | 333° |
| 2026-05-07 11:57 | 35.90526 | 14.26819 | 12002 ft | 340 kts | 333° |
| 2026-05-07 11:57 | 35.92750 | 14.25752 | 12688 ft | 345 kts | 333° |
| 2026-05-07 11:57 | 35.94999 | 14.24673 | 13365 ft | 349 kts | 333° |
| 2026-05-07 11:58 | 35.97247 | 14.23599 | 13978 ft | 353 kts | 333° |
| 2026-05-07 11:58 | 35.99551 | 14.22504 | 14611 ft | 356 kts | 333° |
| 2026-05-07 11:58 | 36.01868 | 14.21405 | 15258 ft | 358 kts | 333° |
| 2026-05-07 11:58 | 36.04120 | 14.20129 | 15922 ft | 353 kts | 323° |
| 2026-05-07 11:59 | 36.06136 | 14.18429 | 16586 ft | 352 kts | 318° |
| 2026-05-07 11:59 | 36.08129 | 14.16660 | 17239 ft | 353 kts | 318° |
| 2026-05-07 11:59 | 36.10132 | 14.14881 | 17878 ft | 355 kts | 318° |
| 2026-05-07 11:59 | 36.12142 | 14.13097 | 18462 ft | 357 kts | 318° |
| 2026-05-07 12:00 | 36.14170 | 14.11297 | 18993 ft | 360 kts | 317° |
| 2026-05-07 12:00 | 36.16184 | 14.09510 | 19498 ft | 363 kts | 318° |
| 2026-05-07 12:00 | 36.18250 | 14.07677 | 19986 ft | 367 kts | 318° |
| 2026-05-07 12:00 | 36.20337 | 14.05828 | 20490 ft | 370 kts | 318° |
| 2026-05-07 12:01 | 36.22442 | 14.03960 | 21013 ft | 373 kts | 318° |
| 2026-05-07 12:01 | 36.24558 | 14.02077 | 21503 ft | 376 kts | 318° |
| 2026-05-07 12:01 | 36.26692 | 14.00176 | 22018 ft | 379 kts | 318° |
| 2026-05-07 12:01 | 36.28847 | 13.98255 | 22525 ft | 383 kts | 318° |
| 2026-05-07 12:02 | 36.31015 | 13.96322 | 23020 ft | 386 kts | 318° |
| 2026-05-07 12:02 | 36.33172 | 13.94400 | 23487 ft | 389 kts | 318° |
| 2026-05-07 12:02 | 36.35375 | 13.92437 | 23905 ft | 391 kts | 318° |
| 2026-05-07 12:02 | 36.37583 | 13.90468 | 24336 ft | 392 kts | 317° |
| 2026-05-07 12:03 | 36.39802 | 13.88485 | 24766 ft | 393 kts | 317° |
| 2026-05-07 12:03 | 36.42022 | 13.86501 | 25194 ft | 394 kts | 317° |
| 2026-05-07 12:03 | 36.44252 | 13.84510 | 25622 ft | 396 kts | 316° |
| 2026-05-07 12:03 | 36.46490 | 13.82505 | 25984 ft | 398 kts | 316° |
| 2026-05-07 12:04 | 36.48740 | 13.80489 | 26366 ft | 399 kts | 316° |
| 2026-05-07 12:04 | 36.50964 | 13.78496 | 26747 ft | 400 kts | 316° |
| 2026-05-07 12:04 | 36.53226 | 13.76470 | 27142 ft | 402 kts | 315° |
| 2026-05-07 12:04 | 36.55494 | 13.74436 | 27518 ft | 403 kts | 315° |
| 2026-05-07 12:05 | 36.57768 | 13.72391 | 27887 ft | 404 kts | 315° |
| 2026-05-07 12:05 | 36.60049 | 13.70337 | 28264 ft | 405 kts | 315° |
| 2026-05-07 12:05 | 36.62340 | 13.68277 | 28605 ft | 407 kts | 315° |
| 2026-05-07 12:05 | 36.64633 | 13.66213 | 28958 ft | 408 kts | 315° |
| 2026-05-07 12:06 | 36.66938 | 13.64139 | 29298 ft | 409 kts | 314° |
| 2026-05-07 12:06 | 36.69217 | 13.62089 | 29651 ft | 411 kts | 315° |
| 2026-05-07 12:06 | 36.71543 | 13.59993 | 29897 ft | 414 kts | 315° |
| 2026-05-07 12:06 | 36.73881 | 13.57882 | 30138 ft | 416 kts | 315° |
| 2026-05-07 12:07 | 36.76226 | 13.55765 | 30395 ft | 417 kts | 315° |
| 2026-05-07 12:07 | 36.78582 | 13.53636 | 30646 ft | 418 kts | 315° |
| 2026-05-07 12:07 | 36.80936 | 13.51505 | 30893 ft | 419 kts | 315° |
| 2026-05-07 12:07 | 36.83299 | 13.49363 | 31156 ft | 420 kts | 314° |
| 2026-05-07 12:08 | 36.85664 | 13.47223 | 31465 ft | 419 kts | 315° |
| 2026-05-07 12:08 | 36.88019 | 13.45088 | 31789 ft | 418 kts | 314° |
| 2026-05-07 12:08 | 36.90339 | 13.42979 | 32098 ft | 417 kts | 314° |
| 2026-05-07 12:08 | 36.92682 | 13.40847 | 32434 ft | 416 kts | 314° |
| 2026-05-07 12:09 | 36.95018 | 13.38721 | 32759 ft | 415 kts | 314° |
| 2026-05-07 12:09 | 36.97344 | 13.36606 | 33130 ft | 413 kts | 314° |
| 2026-05-07 12:09 | 36.99662 | 13.34501 | 33500 ft | 411 kts | 314° |
| 2026-05-07 12:09 | 37.01970 | 13.32406 | 33843 ft | 409 kts | 314° |
| 2026-05-07 12:10 | 37.04271 | 13.30311 | 34139 ft | 408 kts | 313° |
| 2026-05-07 12:10 | 37.06561 | 13.28221 | 34440 ft | 406 kts | 313° |
| 2026-05-07 12:10 | 37.08837 | 13.26141 | 34737 ft | 404 kts | 313° |
| 2026-05-07 12:10 | 37.11069 | 13.24103 | 35025 ft | 402 kts | 313° |
| 2026-05-07 12:11 | 37.13325 | 13.22043 | 35299 ft | 400 kts | 313° |
| 2026-05-07 12:11 | 37.15565 | 13.19991 | 35579 ft | 398 kts | 313° |
| 2026-05-07 12:11 | 37.17797 | 13.17943 | 35814 ft | 397 kts | 313° |
| 2026-05-07 12:12 | 37.22215 | 13.13888 | 35928 ft | 390 kts | 313° |
| 2026-05-07 12:12 | 37.26573 | 13.09882 | 35895 ft | 387 kts | 313° |
| 2026-05-07 12:13 | 37.30915 | 13.05961 | 35893 ft | 392 kts | 318° |
| 2026-05-07 12:13 | 37.33419 | 13.04451 | 35898 ft | 409 kts | 329° |
| 2026-05-07 12:13 | 37.36249 | 13.03606 | 35899 ft | 428 kts | 342° |
| 2026-05-07 12:13 | 37.39291 | 13.03568 | 35895 ft | 449 kts | 355° |
| 2026-05-07 12:14 | 37.42411 | 13.04208 | 35900 ft | 456 kts | 359° |
| 2026-05-07 12:14 | 37.48659 | 13.05605 | 35934 ft | 456 kts | 358° |
| 2026-05-07 12:15 | 37.54865 | 13.06991 | 35926 ft | 456 kts | 358° |
| 2026-05-07 12:15 | 37.61104 | 13.08377 | 35920 ft | 455 kts | 358° |
| 2026-05-07 12:16 | 37.67329 | 13.09748 | 35912 ft | 455 kts | 358° |
| 2026-05-07 12:16 | 37.73571 | 13.11124 | 35906 ft | 454 kts | 358° |
| 2026-05-07 12:17 | 37.79756 | 13.12491 | 35910 ft | 454 kts | 358° |
| 2026-05-07 12:17 | 37.85984 | 13.13867 | 35886 ft | 454 kts | 358° |
| 2026-05-07 12:18 | 37.92211 | 13.15252 | 35935 ft | 454 kts | 358° |
| 2026-05-07 12:18 | 37.98419 | 13.16409 | 35930 ft | 440 kts | 348° |
| 2026-05-07 12:18 | 38.01374 | 13.16250 | 35929 ft | 424 kts | 339° |
| 2026-05-07 12:19 | 38.04213 | 13.15534 | 35929 ft | 410 kts | 331° |
| 2026-05-07 12:19 | 38.06848 | 13.14328 | 35921 ft | 396 kts | 323° |
| 2026-05-07 12:19 | 38.09227 | 13.12699 | 35923 ft | 384 kts | 315° |
| 2026-05-07 12:20 | 38.13615 | 13.08898 | 35896 ft | 382 kts | 314° |
| 2026-05-07 12:20 | 38.17978 | 13.05126 | 35918 ft | 382 kts | 314° |
| 2026-05-07 12:21 | 38.22372 | 13.01326 | 35919 ft | 382 kts | 314° |
| 2026-05-07 12:21 | 38.26766 | 12.97516 | 35901 ft | 382 kts | 314° |
| 2026-05-07 12:22 | 38.31147 | 12.93710 | 35900 ft | 382 kts | 314° |
| 2026-05-07 12:22 | 38.35514 | 12.89916 | 35904 ft | 382 kts | 314° |
| 2026-05-07 12:23 | 38.39903 | 12.86091 | 35906 ft | 383 kts | 314° |
| 2026-05-07 12:23 | 38.44299 | 12.82255 | 35931 ft | 383 kts | 314° |
| 2026-05-07 12:24 | 38.48692 | 12.78417 | 35925 ft | 383 kts | 314° |
| 2026-05-07 12:24 | 38.53093 | 12.74561 | 35930 ft | 384 kts | 314° |
| 2026-05-07 12:25 | 38.57467 | 12.70717 | 35916 ft | 385 kts | 314° |
| 2026-05-07 12:25 | 38.61884 | 12.66846 | 35914 ft | 385 kts | 314° |
| 2026-05-07 12:26 | 38.66305 | 12.62955 | 35919 ft | 386 kts | 314° |
| 2026-05-07 12:26 | 38.70729 | 12.59066 | 35940 ft | 386 kts | 313° |
| 2026-05-07 12:27 | 38.75120 | 12.55196 | 35945 ft | 386 kts | 313° |
| 2026-05-07 12:27 | 38.79531 | 12.51294 | 35940 ft | 385 kts | 313° |
| 2026-05-07 12:28 | 38.83942 | 12.47385 | 35938 ft | 385 kts | 313° |
| 2026-05-07 12:28 | 38.88592 | 12.43877 | 35933 ft | 405 kts | 324° |
| 2026-05-07 12:29 | 38.93829 | 12.41183 | 35964 ft | 405 kts | 324° |
| 2026-05-07 12:29 | 38.99064 | 12.38492 | 35968 ft | 405 kts | 323° |
| 2026-05-07 12:30 | 39.04295 | 12.35784 | 35955 ft | 405 kts | 323° |
| 2026-05-07 12:30 | 39.09526 | 12.33066 | 35948 ft | 405 kts | 323° |
| 2026-05-07 12:31 | 39.14716 | 12.30362 | 35950 ft | 405 kts | 323° |
| 2026-05-07 12:31 | 39.19948 | 12.27644 | 35975 ft | 405 kts | 323° |
| 2026-05-07 12:32 | 39.25168 | 12.24922 | 35979 ft | 404 kts | 323° |
| 2026-05-07 12:32 | 39.30345 | 12.22218 | 35973 ft | 404 kts | 323° |
| 2026-05-07 12:33 | 39.38160 | 12.18135 | 35969 ft | 404 kts | 323° |
| 2026-05-07 12:33 | 39.43360 | 12.15408 | 36002 ft | 403 kts | 322° |
| 2026-05-07 12:34 | 39.48549 | 12.12683 | 35986 ft | 402 kts | 322° |
| 2026-05-07 12:34 | 39.53697 | 12.09980 | 35989 ft | 402 kts | 322° |
| 2026-05-07 12:35 | 39.58875 | 12.07260 | 35985 ft | 401 kts | 322° |
| 2026-05-07 12:35 | 39.64043 | 12.04530 | 36008 ft | 401 kts | 322° |
| 2026-05-07 12:36 | 39.69194 | 12.01809 | 35988 ft | 398 kts | 322° |
| 2026-05-07 12:36 | 39.74286 | 11.99111 | 35976 ft | 398 kts | 322° |
| 2026-05-07 12:37 | 39.79412 | 11.96388 | 35973 ft | 398 kts | 322° |
| 2026-05-07 12:37 | 39.84540 | 11.93667 | 35974 ft | 398 kts | 322° |
| 2026-05-07 12:38 | 39.89673 | 11.90940 | 36013 ft | 398 kts | 323° |
| 2026-05-07 12:38 | 39.94761 | 11.88233 | 36004 ft | 398 kts | 323° |
| 2026-05-07 12:39 | 39.99876 | 11.85499 | 35995 ft | 397 kts | 323° |
| 2026-05-07 12:39 | 40.04987 | 11.82757 | 35994 ft | 397 kts | 323° |
| 2026-05-07 12:40 | 40.10094 | 11.80015 | 35992 ft | 397 kts | 323° |
| 2026-05-07 12:40 | 40.15170 | 11.77296 | 35991 ft | 397 kts | 323° |
| 2026-05-07 12:41 | 40.20277 | 11.74554 | 35989 ft | 397 kts | 323° |
| 2026-05-07 12:41 | 40.25389 | 11.71813 | 35989 ft | 397 kts | 323° |
| 2026-05-07 12:42 | 40.30497 | 11.69064 | 35987 ft | 397 kts | 323° |
| 2026-05-07 12:42 | 40.35579 | 11.66320 | 36019 ft | 399 kts | 324° |
| 2026-05-07 12:43 | 40.40723 | 11.63538 | 36000 ft | 400 kts | 324° |
| 2026-05-07 12:43 | 40.45868 | 11.60746 | 35995 ft | 400 kts | 324° |
| 2026-05-07 12:44 | 40.51021 | 11.57959 | 35990 ft | 401 kts | 324° |
| 2026-05-07 12:44 | 40.56143 | 11.55179 | 36009 ft | 401 kts | 324° |
| 2026-05-07 12:45 | 40.61312 | 11.52367 | 35992 ft | 402 kts | 324° |
| 2026-05-07 12:45 | 40.66484 | 11.49543 | 35984 ft | 403 kts | 324° |
| 2026-05-07 12:46 | 40.71672 | 11.46716 | 35989 ft | 404 kts | 324° |
| 2026-05-07 12:46 | 40.76826 | 11.43909 | 35990 ft | 404 kts | 324° |
| 2026-05-07 12:47 | 40.79279 | 11.42254 | 36020 ft | 388 kts | 314° |
| 2026-05-07 12:47 | 40.81348 | 11.40095 | 36010 ft | 373 kts | 304° |
| 2026-05-07 12:47 | 40.83028 | 11.37571 | 36003 ft | 361 kts | 296° |
| 2026-05-07 12:47 | 40.84303 | 11.34777 | 35997 ft | 351 kts | 287° |
| 2026-05-07 12:48 | 40.85656 | 11.28740 | 36000 ft | 341 kts | 275° |
| 2026-05-07 12:48 | 40.86551 | 11.22620 | 35993 ft | 342 kts | 275° |
| 2026-05-07 12:49 | 40.87466 | 11.16442 | 35980 ft | 343 kts | 275° |
| 2026-05-07 12:49 | 40.88383 | 11.10248 | 35994 ft | 344 kts | 275° |
| 2026-05-07 12:50 | 40.89295 | 11.04045 | 35982 ft | 344 kts | 275° |
| 2026-05-07 12:50 | 40.90200 | 10.97828 | 35997 ft | 344 kts | 275° |
| 2026-05-07 12:51 | 40.91089 | 10.91656 | 35999 ft | 344 kts | 275° |
| 2026-05-07 12:51 | 40.91988 | 10.85439 | 35987 ft | 344 kts | 275° |
| 2026-05-07 12:52 | 40.92888 | 10.79216 | 35995 ft | 344 kts | 275° |
| 2026-05-07 12:52 | 40.93785 | 10.72995 | 35995 ft | 344 kts | 275° |
| 2026-05-07 12:53 | 40.94668 | 10.66813 | 35994 ft | 344 kts | 275° |
| 2026-05-07 12:53 | 40.95550 | 10.60591 | 35995 ft | 344 kts | 275° |
| 2026-05-07 12:54 | 40.96433 | 10.54362 | 36008 ft | 345 kts | 274° |
| 2026-05-07 12:54 | 40.97313 | 10.48126 | 36000 ft | 345 kts | 274° |
| 2026-05-07 12:55 | 40.98184 | 10.41918 | 35987 ft | 346 kts | 274° |
| 2026-05-07 12:55 | 40.98264 | 10.35686 | 35982 ft | 337 kts | 257° |
| 2026-05-07 12:56 | 40.96788 | 10.29827 | 35984 ft | 336 kts | 250° |
| 2026-05-07 12:56 | 40.95124 | 10.24042 | 35982 ft | 337 kts | 250° |
| 2026-05-07 12:57 | 40.93470 | 10.18293 | 36006 ft | 337 kts | 249° |
| 2026-05-07 12:57 | 40.91801 | 10.12495 | 35998 ft | 337 kts | 249° |
| 2026-05-07 12:58 | 40.90124 | 10.06700 | 35962 ft | 338 kts | 249° |
| 2026-05-07 12:58 | 40.89283 | 10.03805 | 36119 ft | 337 kts | 249° |
| 2026-05-07 12:58 | 40.88443 | 10.00914 | 36370 ft | 336 kts | 249° |
| 2026-05-07 12:59 | 40.87608 | 9.98031 | 36632 ft | 335 kts | 249° |
| 2026-05-07 12:59 | 40.86788 | 9.95204 | 36879 ft | 334 kts | 249° |
| 2026-05-07 12:59 | 40.85959 | 9.92348 | 36990 ft | 333 kts | 249° |
| 2026-05-07 12:59 | 40.85130 | 9.89497 | 37001 ft | 332 kts | 249° |
| 2026-05-07 13:00 | 40.84678 | 9.83472 | 37002 ft | 342 kts | 275° |
| 2026-05-07 13:00 | 40.85531 | 9.80461 | 37005 ft | 362 kts | 290° |
| 2026-05-07 13:00 | 40.87186 | 9.77819 | 37004 ft | 388 kts | 307° |
| 2026-05-07 13:01 | 40.91357 | 9.73240 | 37004 ft | 394 kts | 308° |
| 2026-05-07 13:01 | 40.95593 | 9.68641 | 37037 ft | 394 kts | 309° |
| 2026-05-07 13:02 | 40.99807 | 9.64027 | 37024 ft | 393 kts | 308° |
| 2026-05-07 13:02 | 41.03998 | 9.59401 | 37015 ft | 392 kts | 308° |
| 2026-05-07 13:03 | 41.08185 | 9.54768 | 37006 ft | 392 kts | 308° |
| 2026-05-07 13:03 | 41.12350 | 9.50168 | 36999 ft | 392 kts | 308° |
| 2026-05-07 13:04 | 41.16533 | 9.45538 | 37013 ft | 392 kts | 309° |
| 2026-05-07 13:04 | 41.20727 | 9.40885 | 36991 ft | 394 kts | 309° |
| 2026-05-07 13:05 | 41.24936 | 9.36205 | 36966 ft | 395 kts | 309° |
| 2026-05-07 13:05 | 41.29126 | 9.31535 | 36963 ft | 396 kts | 309° |
| 2026-05-07 13:06 | 41.33356 | 9.26807 | 36967 ft | 397 kts | 309° |
| 2026-05-07 13:06 | 41.37588 | 9.22073 | 36964 ft | 398 kts | 309° |
| 2026-05-07 13:07 | 41.41828 | 9.17328 | 36991 ft | 398 kts | 310° |
| 2026-05-07 13:07 | 41.46040 | 9.12593 | 36970 ft | 400 kts | 310° |
| 2026-05-07 13:08 | 41.50297 | 9.07791 | 36994 ft | 401 kts | 310° |
| 2026-05-07 13:08 | 41.54570 | 9.02973 | 36986 ft | 403 kts | 310° |
| 2026-05-07 13:09 | 41.58853 | 8.98132 | 36974 ft | 404 kts | 310° |
| 2026-05-07 13:09 | 41.63149 | 8.93275 | 36976 ft | 405 kts | 310° |
| 2026-05-07 13:10 | 41.67424 | 8.88429 | 36982 ft | 406 kts | 311° |
| 2026-05-07 13:10 | 41.71730 | 8.83534 | 36978 ft | 406 kts | 311° |
| 2026-05-07 13:11 | 41.76041 | 8.78638 | 36984 ft | 408 kts | 312° |
| 2026-05-07 13:11 | 41.78412 | 8.76466 | 36986 ft | 419 kts | 322° |
| 2026-05-07 13:11 | 41.80981 | 8.74583 | 36973 ft | 421 kts | 322° |
| 2026-05-07 13:12 | 41.86102 | 8.70849 | 36995 ft | 423 kts | 322° |
| 2026-05-07 13:12 | 41.91276 | 8.67058 | 36989 ft | 424 kts | 322° |
| 2026-05-07 13:13 | 41.96457 | 8.63237 | 36981 ft | 426 kts | 322° |
| 2026-05-07 13:13 | 42.01651 | 8.59396 | 36979 ft | 426 kts | 322° |
| 2026-05-07 13:14 | 42.06818 | 8.55576 | 36980 ft | 427 kts | 322° |
| 2026-05-07 13:14 | 42.12029 | 8.51727 | 37002 ft | 428 kts | 323° |
| 2026-05-07 13:15 | 42.17257 | 8.47850 | 36165 ft | 437 kts | 323° |
| 2026-05-07 13:15 | 42.19960 | 8.45829 | 34811 ft | 451 kts | 323° |
| 2026-05-07 13:15 | 42.22722 | 8.43766 | 33682 ft | 456 kts | 323° |
| 2026-05-07 13:16 | 42.25474 | 8.41715 | 32508 ft | 459 kts | 323° |
| 2026-05-07 13:16 | 42.28273 | 8.39629 | 31327 ft | 461 kts | 323° |
| 2026-05-07 13:16 | 42.31086 | 8.37532 | 30127 ft | 463 kts | 323° |
| 2026-05-07 13:16 | 42.33912 | 8.35418 | 28725 ft | 465 kts | 324° |
| 2026-05-07 13:17 | 42.36747 | 8.33294 | 27246 ft | 468 kts | 324° |
| 2026-05-07 13:17 | 42.39607 | 8.31150 | 25692 ft | 472 kts | 325° |
| 2026-05-07 13:17 | 42.42492 | 8.28985 | 24448 ft | 473 kts | 326° |
| 2026-05-07 13:17 | 42.45322 | 8.26872 | 24143 ft | 454 kts | 326° |
| 2026-05-07 13:18 | 42.47983 | 8.24892 | 24023 ft | 433 kts | 326° |
| 2026-05-07 13:18 | 42.50598 | 8.22941 | 23377 ft | 427 kts | 326° |
| 2026-05-07 13:18 | 42.53192 | 8.20988 | 22599 ft | 426 kts | 326° |
| 2026-05-07 13:18 | 42.55774 | 8.19034 | 21934 ft | 424 kts | 326° |
| 2026-05-07 13:19 | 42.58339 | 8.17090 | 21289 ft | 421 kts | 326° |
| 2026-05-07 13:19 | 42.60880 | 8.15159 | 20657 ft | 417 kts | 327° |
| 2026-05-07 13:19 | 42.63408 | 8.13240 | 20036 ft | 415 kts | 327° |
| 2026-05-07 13:19 | 42.65918 | 8.11335 | 19399 ft | 412 kts | 327° |
| 2026-05-07 13:20 | 42.68413 | 8.09444 | 18763 ft | 410 kts | 327° |
| 2026-05-07 13:20 | 42.70862 | 8.07588 | 18300 ft | 407 kts | 328° |
| 2026-05-07 13:20 | 42.73319 | 8.05724 | 17709 ft | 403 kts | 328° |
| 2026-05-07 13:20 | 42.75777 | 8.03927 | 17138 ft | 401 kts | 334° |
| 2026-05-07 13:21 | 42.78433 | 8.02924 | 16903 ft | 393 kts | 351° |
| 2026-05-07 13:21 | 42.81124 | 8.02938 | 16772 ft | 382 kts | 4° |
| 2026-05-07 13:21 | 42.83720 | 8.03321 | 16640 ft | 369 kts | 4° |
| 2026-05-07 13:21 | 42.86229 | 8.03693 | 16508 ft | 356 kts | 4° |
| 2026-05-07 13:22 | 42.88673 | 8.04056 | 16144 ft | 352 kts | 4° |
| 2026-05-07 13:22 | 42.91103 | 8.04413 | 15727 ft | 350 kts | 4° |
| 2026-05-07 13:22 | 42.93485 | 8.04766 | 15331 ft | 348 kts | 4° |
| 2026-05-07 13:22 | 42.95886 | 8.05126 | 14939 ft | 346 kts | 5° |
| 2026-05-07 13:23 | 42.98246 | 8.05483 | 14768 ft | 336 kts | 5° |
| 2026-05-07 13:23 | 43.00533 | 8.05829 | 14647 ft | 326 kts | 4° |
| 2026-05-07 13:23 | 43.02757 | 8.06164 | 14454 ft | 318 kts | 4° |
| 2026-05-07 13:23 | 43.04949 | 8.06494 | 14161 ft | 316 kts | 5° |
| 2026-05-07 13:24 | 43.07123 | 8.06826 | 13839 ft | 314 kts | 5° |
| 2026-05-07 13:24 | 43.09286 | 8.07155 | 13492 ft | 312 kts | 4° |
| 2026-05-07 13:24 | 43.11435 | 8.07479 | 13129 ft | 310 kts | 5° |
| 2026-05-07 13:24 | 43.13547 | 8.07793 | 12774 ft | 308 kts | 4° |
| 2026-05-07 13:25 | 43.15674 | 8.08108 | 12421 ft | 306 kts | 5° |
| 2026-05-07 13:25 | 43.17788 | 8.08423 | 12065 ft | 305 kts | 4° |
| 2026-05-07 13:25 | 43.19892 | 8.08740 | 11704 ft | 303 kts | 5° |
| 2026-05-07 13:25 | 43.21984 | 8.09055 | 11359 ft | 301 kts | 5° |
| 2026-05-07 13:26 | 43.24060 | 8.09371 | 11008 ft | 300 kts | 5° |
| 2026-05-07 13:26 | 43.26130 | 8.09681 | 10648 ft | 298 kts | 2° |
| 2026-05-07 13:26 | 43.28170 | 8.09467 | 10302 ft | 293 kts | 343° |
| 2026-05-07 13:26 | 43.29998 | 8.08397 | 9954 ft | 289 kts | 325° |
| 2026-05-07 13:27 | 43.31486 | 8.06603 | 9586 ft | 283 kts | 307° |
| 2026-05-07 13:27 | 43.32540 | 8.04338 | 9175 ft | 281 kts | 298° |
| 2026-05-07 13:27 | 43.33499 | 8.02006 | 8760 ft | 280 kts | 298° |
| 2026-05-07 13:27 | 43.34459 | 7.99681 | 8371 ft | 279 kts | 298° |
| 2026-05-07 13:28 | 43.35415 | 7.97369 | 7965 ft | 278 kts | 298° |
| 2026-05-07 13:28 | 43.36365 | 7.95066 | 7597 ft | 276 kts | 298° |
| 2026-05-07 13:28 | 43.37309 | 7.92784 | 7219 ft | 274 kts | 299° |
| 2026-05-07 13:28 | 43.38248 | 7.90518 | 6823 ft | 272 kts | 299° |
| 2026-05-07 13:29 | 43.39170 | 7.88290 | 6454 ft | 271 kts | 299° |
| 2026-05-07 13:29 | 43.40096 | 7.86043 | 6047 ft | 269 kts | 299° |
| 2026-05-07 13:29 | 43.41017 | 7.83804 | 5643 ft | 268 kts | 298° |
| 2026-05-07 13:29 | 43.41879 | 7.81548 | 5241 ft | 265 kts | 289° |
| 2026-05-07 13:30 | 43.42389 | 7.79132 | 4880 ft | 262 kts | 284° |
| 2026-05-07 13:30 | 43.42876 | 7.76732 | 4460 ft | 260 kts | 285° |
| 2026-05-07 13:30 | 43.43369 | 7.74338 | 4040 ft | 260 kts | 285° |
| 2026-05-07 13:30 | 43.43863 | 7.71954 | 3644 ft | 258 kts | 285° |
| 2026-05-07 13:31 | 43.44348 | 7.69594 | 3226 ft | 256 kts | 284° |
| 2026-05-07 13:31 | 43.44826 | 7.67273 | 2851 ft | 253 kts | 284° |
| 2026-05-07 13:31 | 43.45301 | 7.64954 | 2418 ft | 252 kts | 284° |
| 2026-05-07 13:31 | 43.45773 | 7.62637 | 2119 ft | 248 kts | 284° |
| 2026-05-07 13:32 | 43.46244 | 7.60328 | 2126 ft | 252 kts | 284° |
| 2026-05-07 13:32 | 43.46720 | 7.57991 | 2043 ft | 256 kts | 284° |
| 2026-05-07 13:32 | 43.47200 | 7.55610 | 1997 ft | 258 kts | 282° |
| 2026-05-07 13:32 | 43.47394 | 7.53168 | 1995 ft | 256 kts | 265° |
| 2026-05-07 13:33 | 43.47143 | 7.50762 | 2003 ft | 253 kts | 254° |
| 2026-05-07 13:33 | 43.46749 | 7.48429 | 2002 ft | 254 kts | 256° |
| 2026-05-07 13:33 | 43.46355 | 7.46057 | 2000 ft | 254 kts | 255° |
| 2026-05-07 13:33 | 43.45963 | 7.43685 | 1999 ft | 255 kts | 256° |
| 2026-05-07 13:34 | 43.45569 | 7.41300 | 2001 ft | 255 kts | 256° |
| 2026-05-07 13:34 | 43.44782 | 7.36545 | 2001 ft | 255 kts | 256° |
| 2026-05-07 13:34 | 43.44385 | 7.34169 | 2007 ft | 254 kts | 254° |
| 2026-05-07 13:35 | 43.43985 | 7.31803 | 2007 ft | 254 kts | 255° |
| 2026-05-07 13:35 | 43.43590 | 7.29446 | 1994 ft | 247 kts | 256° |
| 2026-05-07 13:35 | 43.43220 | 7.27224 | 1998 ft | 230 kts | 256° |
| 2026-05-07 13:35 | 43.42883 | 7.25179 | 1997 ft | 215 kts | 257° |
| 2026-05-07 13:36 | 43.42815 | 7.23200 | 1999 ft | 203 kts | 277° |
| 2026-05-07 13:36 | 43.43221 | 7.21365 | 2000 ft | 201 kts | 296° |
| 2026-05-07 13:36 | 43.44033 | 7.19818 | 2002 ft | 199 kts | 310° |
| 2026-05-07 13:36 | 43.44947 | 7.18389 | 2003 ft | 199 kts | 309° |
| 2026-05-07 13:37 | 43.45943 | 7.17056 | 1999 ft | 202 kts | 324° |
| 2026-05-07 13:37 | 43.47236 | 7.16285 | 2008 ft | 205 kts | 348° |
| 2026-05-07 13:37 | 43.48664 | 7.16106 | 2014 ft | 207 kts | 356° |
| 2026-05-07 13:37 | 43.50082 | 7.15978 | 2009 ft | 206 kts | 355° |
| 2026-05-07 13:38 | 43.51513 | 7.15842 | 2014 ft | 205 kts | 355° |
| 2026-05-07 13:38 | 43.52939 | 7.15702 | 2006 ft | 204 kts | 355° |
| 2026-05-07 13:38 | 43.54289 | 7.15568 | 2031 ft | 183 kts | 355° |
| 2026-05-07 13:38 | 43.55496 | 7.15451 | 1988 ft | 167 kts | 355° |
| 2026-05-07 13:39 | 43.56621 | 7.15328 | 2004 ft | 159 kts | 355° |
| 2026-05-07 13:39 | 43.57706 | 7.15200 | 2019 ft | 155 kts | 354° |
| 2026-05-07 13:39 | 43.58766 | 7.15069 | 2012 ft | 151 kts | 354° |
| 2026-05-07 13:39 | 43.59813 | 7.14946 | 1877 ft | 154 kts | 354° |
| 2026-05-07 13:40 | 43.60895 | 7.15043 | 1516 ft | 155 kts | 18° |
| 2026-05-07 13:40 | 43.61787 | 7.15735 | 1264 ft | 145 kts | 46° |
| 2026-05-07 13:40 | 43.62482 | 7.16723 | 1031 ft | 143 kts | 46° |
| 2026-05-07 13:40 | 43.63204 | 7.17651 | 808 ft | 141 kts | 46° |
| 2026-05-07 13:41 | 43.63896 | 7.18632 | 557 ft | 142 kts | 49° |
| 2026-05-07 13:41 | 43.64601 | 7.19599 | 270 ft | 145 kts | 49° |
| 2026-05-07 13:41 | 43.65307 | 7.20581 | 55 ft | 143 kts | 47° |
| 2026-05-07 13:41 | 43.65936 | 7.21440 | 21 ft | 97 kts | 45° |
| 2026-05-07 13:42 | 43.66263 | 7.21889 | 22 ft | 46 kts | 40° |
| 2026-05-07 13:42 | 43.66465 | 7.22036 | 21 ft | 20 kts | 20° |
| 2026-05-07 13:42 | 43.66535 | 7.22045 | 21 ft | 8 kts | 337° |
| 2026-05-07 13:42 | 43.66552 | 7.21984 | 21 ft | 6 kts | 261° |
| 2026-05-07 13:43 | 43.66530 | 7.21938 | 21 ft | 5 kts | 228° |
| 2026-05-07 13:43 | 43.66505 | 7.21903 | 21 ft | 7 kts | 224° |
| 2026-05-07 13:43 | 43.66452 | 7.21832 | 21 ft | 14 kts | 226° |
| 2026-05-07 13:43 | 43.66380 | 7.21730 | 21 ft | 16 kts | 225° |
| 2026-05-07 13:44 | 43.66296 | 7.21617 | 21 ft | 18 kts | 225° |
| 2026-05-07 13:44 | 43.66201 | 7.21486 | 21 ft | 20 kts | 225° |
| 2026-05-07 13:44 | 43.66097 | 7.21342 | 21 ft | 22 kts | 225° |
| 2026-05-07 13:44 | 43.65983 | 7.21187 | 21 ft | 24 kts | 224° |
| 2026-05-07 13:45 | 43.65862 | 7.21019 | 21 ft | 25 kts | 225° |
| 2026-05-07 13:45 | 43.65794 | 7.20904 | 21 ft | 12 kts | 263° |
| 2026-05-07 13:45 | 43.65820 | 7.20856 | 21 ft | 9 kts | 335° |
| 2026-05-07 13:45 | 43.65893 | 7.20841 | 23 ft | 15 kts | 351° |
| 2026-05-07 13:46 | 43.65998 | 7.20818 | 22 ft | 15 kts | 351° |
| 2026-05-07 13:46 | 43.66095 | 7.20796 | 21 ft | 14 kts | 351° |
| 2026-05-07 13:46 | 43.66179 | 7.20758 | 21 ft | 6 kts | 286° |
| 2026-05-07 13:46 | 43.66176 | 7.20722 | 21 ft | 5 kts | 261° |
| 2026-05-07 13:47 | 43.66170 | 7.20667 | 21 ft | 2 kts | 260° |
| 2026-05-07 13:47 | 43.66169 | 7.20660 | 21 ft | 0 kts | 260° |
| 2026-05-07 13:47 | 43.66170 | 7.20670 | 21 ft | 5 kts | 259° |
| 2026-05-07 13:47 | 43.66172 | 7.20681 | 22 ft | 1 kts | 260° |
| 2026-05-07 13:48 | 43.66171 | 7.20679 | 21 ft | 0 kts | 260° |